createdAt,value
2022-12-12T00:02:01.406Z,96152.59
2022-12-12T00:04:28.997Z,96152.34
2022-12-12T00:06:56.592Z,96156.25
2022-12-12T00:09:24.202Z,96157.38
2022-12-12T00:11:51.832Z,96157.75
2022-12-12T00:14:21.123Z,96160.69
2022-12-12T00:16:48.712Z,96165.97
2022-12-12T00:19:16.392Z,96165.16
2022-12-12T00:21:44.135Z,96169.59
2022-12-12T00:24:11.877Z,96164.81
2022-12-12T00:26:39.445Z,96168.19
2022-12-12T00:29:07.700Z,96168.34
2022-12-12T00:31:36.662Z,96174.91
2022-12-12T00:34:04.349Z,96173.75
2022-12-12T00:36:32.279Z,96173.63
2022-12-12T00:39:00.215Z,96175.25
2022-12-12T00:41:28.353Z,96174.34
2022-12-12T00:43:56.054Z,96177.28
2022-12-12T00:46:26.165Z,96175.53
2022-12-12T00:48:56.915Z,96175.16
2022-12-12T00:51:26.508Z,96183.25
2022-12-12T00:53:54.380Z,96187.25
2022-12-12T00:56:23.413Z,96193.72
2022-12-12T00:58:51.493Z,96199.28
2022-12-12T01:01:21.943Z,96186.22
2022-12-12T01:03:49.917Z,96189.63
2022-12-12T01:06:18.987Z,96192.94
2022-12-12T01:08:46.686Z,96200.94
2022-12-12T01:11:15.345Z,96209.03
2022-12-12T01:13:43.482Z,96196.22
2022-12-12T01:16:12.453Z,96199.47
2022-12-12T01:18:41.040Z,96204.44
2022-12-12T01:21:10.208Z,96201.25
2022-12-12T01:23:39.577Z,96208.53
2022-12-12T01:26:09.465Z,96202.75
2022-12-12T01:28:38.051Z,96202.66
2022-12-12T01:31:06.169Z,96196.66
2022-12-12T01:33:34.020Z,96209.09
2022-12-12T01:36:01.639Z,96205.19
2022-12-12T01:38:29.227Z,96207.59
2022-12-12T01:40:58.167Z,96215.44
2022-12-12T01:43:26.415Z,96212.16
2022-12-12T01:46:33.504Z,96201.72
2022-12-12T01:49:04.961Z,96209.34
2022-12-12T01:51:32.743Z,96208.63
2022-12-12T01:54:03.985Z,96204.78
2022-12-12T01:56:33.499Z,96208.06
2022-12-12T01:59:01.803Z,96216.88
2022-12-12T02:01:29.573Z,96213.00
2022-12-12T02:03:57.547Z,96219.69
2022-12-12T02:06:27.997Z,96223.44
2022-12-12T02:08:58.330Z,96226.25
2022-12-12T02:11:28.015Z,96226.72
2022-12-12T02:13:57.621Z,96225.69
2022-12-12T02:16:40.204Z,96230.56
2022-12-12T02:19:23.270Z,96229.38
2022-12-12T02:21:53.328Z,96230.16
2022-12-12T02:24:46.264Z,96235.94
2022-12-12T02:27:35.492Z,96240.03
2022-12-12T02:30:14.317Z,96240.41
2022-12-12T02:32:55.569Z,96241.81
2022-12-12T02:35:33.276Z,96247.25
2022-12-12T02:38:06.917Z,96246.16
2022-12-12T02:40:37.911Z,96248.53
2022-12-12T02:43:11.374Z,96246.72
2022-12-12T02:45:41.130Z,96244.47
2022-12-12T02:48:13.438Z,96243.44
2022-12-12T02:50:42.436Z,96245.31
2022-12-12T02:53:10.859Z,96246.59
2022-12-12T02:55:38.433Z,96242.97
2022-12-12T02:58:06.789Z,96251.22
2022-12-12T03:00:40.589Z,96252.06
2022-12-12T03:03:48.234Z,96252.66
2022-12-12T03:06:49.320Z,96247.88
2022-12-12T03:09:24.860Z,96239.69
2022-12-12T03:12:00.770Z,96249.56
2022-12-12T03:14:33.893Z,96248.47
2022-12-12T03:17:03.118Z,96242.00
2022-12-12T03:19:38.827Z,96253.16
2022-12-12T03:22:11.734Z,96251.41
2022-12-12T03:24:45.296Z,96239.53
2022-12-12T03:27:16.324Z,96245.88
2022-12-12T03:29:48.131Z,96236.63
2022-12-12T03:32:18.675Z,96244.69
2022-12-12T03:34:51.049Z,96245.13
2022-12-12T03:37:21.450Z,96250.69
2022-12-12T03:39:51.982Z,96242.81
2022-12-12T03:42:23.020Z,96247.44
2022-12-12T03:44:54.155Z,96244.84
2022-12-12T03:47:24.709Z,96245.56
2022-12-12T03:49:56.936Z,96247.09
2022-12-12T03:52:28.012Z,96247.66
2022-12-12T03:55:00.374Z,96247.19
2022-12-12T03:57:32.252Z,96253.22
2022-12-12T04:00:03.645Z,96249.69
2022-12-12T04:02:36.397Z,96248.91
2022-12-12T04:05:12.008Z,96247.03
2022-12-12T04:07:43.085Z,96247.72
2022-12-12T04:10:29.396Z,96252.41
2022-12-12T04:13:04.289Z,96258.81
2022-12-12T04:15:55.201Z,96257.22
2022-12-12T04:18:27.757Z,96255.06
2022-12-12T04:21:20.847Z,96252.09
2022-12-12T04:23:57.535Z,96252.00
2022-12-12T04:26:40.194Z,96251.72
2022-12-12T04:29:24.858Z,96260.53
2022-12-12T04:31:56.396Z,96260.41
2022-12-12T04:34:29.648Z,96244.56
2022-12-12T04:36:58.766Z,96259.03
2022-12-12T04:39:27.601Z,96257.28
2022-12-12T04:41:55.963Z,96258.59
2022-12-12T04:44:24.899Z,96258.94
2022-12-12T04:46:54.780Z,96266.59
2022-12-12T04:49:26.514Z,96270.56
2022-12-12T04:51:56.570Z,96267.97
2022-12-12T04:54:31.180Z,96272.41
2022-12-12T04:57:02.021Z,96263.41
2022-12-12T04:59:30.316Z,96271.34
2022-12-12T05:02:01.849Z,96271.19
2022-12-12T05:04:32.856Z,96267.41
2022-12-12T05:07:03.988Z,96269.91
2022-12-12T05:09:33.028Z,96266.22
2022-12-12T05:12:00.610Z,96277.56
2022-12-12T05:14:28.786Z,96274.59
2022-12-12T05:17:01.303Z,96282.66
2022-12-12T05:19:28.984Z,96281.66
2022-12-12T05:21:56.557Z,96283.06
2022-12-12T05:24:24.128Z,96289.97
2022-12-12T05:26:53.143Z,96287.69
2022-12-12T05:29:20.724Z,96287.19
2022-12-12T05:31:48.297Z,96287.81
2022-12-12T05:34:15.910Z,96296.22
2022-12-12T05:36:43.568Z,96293.25
2022-12-12T05:39:11.154Z,96294.09
2022-12-12T05:41:38.760Z,96296.78
2022-12-12T05:44:07.958Z,96297.63
2022-12-12T05:46:35.519Z,96298.84
2022-12-12T05:49:03.221Z,96301.94
2022-12-12T05:51:30.836Z,96296.88
2022-12-12T05:53:58.429Z,96303.69
2022-12-12T05:56:26.030Z,96301.50
2022-12-12T05:58:53.646Z,96300.88
2022-12-12T06:01:22.556Z,96303.03
2022-12-12T06:03:50.198Z,96304.25
2022-12-12T06:06:17.974Z,96305.47
2022-12-12T06:08:45.555Z,96301.03
2022-12-12T06:11:13.157Z,96309.63
2022-12-12T06:13:40.726Z,96299.00
2022-12-12T06:16:09.131Z,96304.81
2022-12-12T06:18:38.490Z,96302.97
2022-12-12T06:21:07.659Z,96311.47
2022-12-12T06:23:37.000Z,96312.13
2022-12-12T06:26:04.876Z,96321.31
2022-12-12T06:28:32.649Z,96315.03
2022-12-12T06:31:00.285Z,96326.09
2022-12-12T06:33:28.577Z,96315.63
2022-12-12T06:36:01.627Z,96324.63
2022-12-12T06:38:30.274Z,96327.13
2022-12-12T06:40:57.922Z,96319.69
2022-12-12T06:43:25.724Z,96324.00
2022-12-12T06:45:53.440Z,96328.31
2022-12-12T06:48:21.191Z,96334.03
2022-12-12T06:50:49.530Z,96334.66
2022-12-12T06:53:18.485Z,96343.78
2022-12-12T06:55:46.040Z,96344.88
2022-12-12T06:58:13.854Z,96348.53
2022-12-12T07:00:41.521Z,96348.25
2022-12-12T07:03:10.010Z,96346.53
2022-12-12T07:05:37.677Z,96360.56
2022-12-12T07:08:05.848Z,96361.03
2022-12-12T07:10:36.474Z,96363.63
2022-12-12T07:13:04.833Z,96364.91
2022-12-12T07:15:32.734Z,96367.47
2022-12-12T07:18:00.484Z,96365.59
2022-12-12T07:20:28.266Z,96368.34
2022-12-12T07:22:56.017Z,96374.59
2022-12-12T07:25:23.756Z,96365.91
2022-12-12T07:27:53.199Z,96365.06
2022-12-12T07:30:20.884Z,96373.00
2022-12-12T07:32:48.616Z,96377.94
2022-12-12T07:35:16.772Z,96368.69
2022-12-12T07:37:44.502Z,96368.56
2022-12-12T07:40:13.546Z,96368.38
2022-12-12T07:42:41.609Z,96378.84
2022-12-12T07:45:17.883Z,96375.00
2022-12-12T07:47:46.214Z,96376.38
2022-12-12T07:50:14.304Z,96385.66
2022-12-12T07:52:42.088Z,96392.00
2022-12-12T07:55:11.375Z,96385.56
2022-12-12T07:57:39.665Z,96393.72
2022-12-12T08:00:08.833Z,96399.72
2022-12-12T08:02:37.928Z,96396.66
2022-12-12T08:05:06.329Z,96395.38
2022-12-12T08:07:34.132Z,96402.56
2022-12-12T08:10:01.981Z,96405.28
2022-12-12T08:12:30.384Z,96403.06
2022-12-12T08:14:58.185Z,96404.91
2022-12-12T08:17:25.972Z,96407.69
2022-12-12T08:19:55.009Z,96415.75
2022-12-12T08:22:22.776Z,96415.44
2022-12-12T08:24:50.900Z,96415.03
2022-12-12T08:27:18.583Z,96416.47
2022-12-12T08:29:46.309Z,96412.81
2022-12-12T08:32:14.048Z,96415.69
2022-12-12T08:34:41.971Z,96411.97
2022-12-12T08:37:11.085Z,96416.94
2022-12-12T08:39:39.510Z,96418.19
2022-12-12T08:42:07.516Z,96422.72
2022-12-12T08:44:35.204Z,96424.78
2022-12-12T08:47:03.010Z,96422.31
2022-12-12T08:49:31.382Z,96429.66
2022-12-12T08:51:59.128Z,96416.31
2022-12-12T08:54:28.856Z,96420.97
2022-12-12T08:56:56.644Z,96421.91
2022-12-12T08:59:24.419Z,96424.06
2022-12-12T09:01:52.216Z,96423.34
2022-12-12T09:04:19.954Z,96428.81
2022-12-12T09:06:47.710Z,96435.59
2022-12-12T09:09:15.458Z,96430.13
2022-12-12T09:11:45.022Z,96434.44
2022-12-12T09:14:12.750Z,96438.34
2022-12-12T09:16:40.526Z,96441.41
2022-12-12T09:19:08.289Z,96440.28
2022-12-12T09:21:36.009Z,96449.97
2022-12-12T09:24:03.799Z,96449.59
2022-12-12T09:26:32.177Z,96449.97
2022-12-12T09:29:01.283Z,96451.84
2022-12-12T09:31:29.001Z,96453.78
2022-12-12T09:33:56.809Z,96449.00
2022-12-12T09:36:24.511Z,96446.06
2022-12-12T09:38:52.221Z,96446.06
2022-12-12T09:41:21.782Z,96446.16
2022-12-12T09:43:54.959Z,96444.19
2022-12-12T09:46:31.121Z,96447.22
2022-12-12T09:49:04.794Z,96445.78
2022-12-12T09:51:32.580Z,96442.50
2022-12-12T09:54:00.204Z,96440.41
2022-12-12T09:56:34.055Z,96439.13
2022-12-12T09:59:06.157Z,96438.19
2022-12-12T10:01:39.969Z,96436.06
2022-12-12T10:04:16.038Z,96447.66
2022-12-12T10:06:47.464Z,96443.06
2022-12-12T10:09:31.566Z,96438.94
2022-12-12T10:12:04.819Z,96438.25
2022-12-12T10:14:36.151Z,96441.78
2022-12-12T10:17:08.559Z,96442.41
2022-12-12T10:19:43.493Z,96439.44
2022-12-12T10:22:17.615Z,96443.56
2022-12-12T10:24:48.311Z,96449.69
2022-12-12T10:27:15.918Z,96449.94
2022-12-12T10:29:47.513Z,96442.03
2022-12-12T10:32:27.622Z,96442.25
2022-12-12T10:35:03.185Z,96441.22
2022-12-12T10:37:40.213Z,96442.53
2022-12-12T10:40:19.101Z,96438.06
2022-12-12T10:42:51.776Z,96440.28
2022-12-12T10:45:29.807Z,96439.94
2022-12-12T10:47:58.817Z,96443.84
2022-12-12T10:50:29.805Z,96434.16
2022-12-12T10:52:57.400Z,96440.16
2022-12-12T10:55:36.255Z,96441.00
2022-12-12T10:58:05.211Z,96436.84
2022-12-12T11:00:34.512Z,96431.91
2022-12-12T11:03:13.911Z,96438.88
2022-12-12T11:05:42.361Z,96432.50
2022-12-12T11:08:22.134Z,96434.84
2022-12-12T11:11:04.622Z,96430.16
2022-12-12T11:13:33.006Z,96437.34
2022-12-12T11:16:02.995Z,96436.03
2022-12-12T11:18:31.931Z,96432.63
2022-12-12T11:21:06.767Z,96427.88
2022-12-12T11:23:35.755Z,96429.31
2022-12-12T11:26:05.969Z,96427.50
2022-12-12T11:28:36.267Z,96432.28
2022-12-12T11:31:06.833Z,96427.56
2022-12-12T11:33:38.251Z,96427.13
2022-12-12T11:36:07.378Z,96427.97
2022-12-12T11:38:39.249Z,96426.00
2022-12-12T11:41:09.015Z,96424.25
2022-12-12T11:43:38.003Z,96422.03
2022-12-12T11:46:08.549Z,96427.91
2022-12-12T11:48:44.076Z,96429.09
2022-12-12T11:51:12.406Z,96430.38
2022-12-12T11:53:41.785Z,96419.06
2022-12-12T11:56:29.242Z,96414.84
2022-12-12T11:59:07.472Z,96421.31
2022-12-12T12:01:45.222Z,96431.78
2022-12-12T12:04:31.196Z,96424.25
2022-12-12T12:07:12.077Z,96419.50
2022-12-12T12:09:46.810Z,96417.75
2022-12-12T12:12:17.338Z,96415.25
2022-12-12T12:14:57.271Z,96410.78
2022-12-12T12:17:46.145Z,96416.81
2022-12-12T12:20:21.067Z,96411.63
2022-12-12T12:22:56.044Z,96410.47
2022-12-12T12:25:33.690Z,96419.31
2022-12-12T12:28:21.304Z,96416.47
2022-12-12T12:30:54.574Z,96421.53
2022-12-12T12:33:44.010Z,96416.72
2022-12-12T12:36:21.112Z,96419.88
2022-12-12T12:39:05.894Z,96427.97
2022-12-12T12:41:47.255Z,96428.22
2022-12-12T12:44:27.428Z,96428.59
2022-12-12T12:47:00.916Z,96424.25
2022-12-12T12:49:32.557Z,96430.38
2022-12-12T12:52:03.983Z,96422.94
2022-12-12T12:54:34.230Z,96419.38
2022-12-12T12:57:05.237Z,96415.72
2022-12-12T12:59:36.224Z,96418.78
2022-12-12T13:02:06.861Z,96415.66
2022-12-12T13:04:42.172Z,96409.72
2022-12-12T13:07:15.258Z,96408.75
2022-12-12T13:09:45.734Z,96416.91
2022-12-12T13:12:17.210Z,96411.94
2022-12-12T13:14:47.240Z,96419.00
2022-12-12T13:17:19.241Z,96420.72
2022-12-12T13:19:48.649Z,96420.91
2022-12-12T13:22:22.532Z,96422.56
2022-12-12T13:24:59.591Z,96429.75
2022-12-12T13:27:30.593Z,96423.66
2022-12-12T13:30:02.268Z,96432.97
2022-12-12T13:33:12.074Z,96438.25
2022-12-12T13:35:44.204Z,96426.78
2022-12-12T13:38:19.015Z,96428.94
2022-12-12T13:40:56.400Z,96430.84
2022-12-12T13:43:29.432Z,96426.72
2022-12-12T13:45:57.242Z,96431.69
2022-12-12T13:48:46.762Z,96430.97
2022-12-12T13:51:35.642Z,96432.16
2022-12-12T13:54:56.600Z,96430.38
2022-12-12T13:57:31.671Z,96430.84
2022-12-12T14:00:26.844Z,96427.56
2022-12-12T14:03:05.013Z,96431.44
2022-12-12T14:05:35.643Z,96438.16
2022-12-12T14:08:07.086Z,96430.97
2022-12-12T14:10:36.977Z,96432.16
2022-12-12T14:13:19.738Z,96431.56
2022-12-12T14:15:48.149Z,96447.94
2022-12-12T14:18:22.930Z,96435.22
2022-12-12T14:21:00.200Z,96431.94
2022-12-12T14:23:31.318Z,96431.56
2022-12-12T14:25:59.781Z,96444.16
2022-12-12T14:28:29.911Z,96435.22
2022-12-12T14:31:18.635Z,96439.81
2022-12-12T14:34:04.530Z,96440.50
2022-12-12T14:36:44.212Z,96451.47
2022-12-12T14:39:17.931Z,96446.06
2022-12-12T14:41:46.996Z,96448.88
2022-12-12T14:44:36.617Z,96447.22
2022-12-12T14:47:08.305Z,96448.16
2022-12-12T14:49:36.197Z,96435.19
2022-12-12T14:52:03.917Z,96444.63
2022-12-12T14:54:31.904Z,96439.66
2022-12-12T14:57:01.475Z,96440.97
2022-12-12T14:59:32.946Z,96449.31
2022-12-12T15:02:01.736Z,96458.97
2022-12-12T15:04:31.718Z,96457.88
2022-12-12T15:07:01.509Z,96456.81
2022-12-12T15:09:30.676Z,96452.91
2022-12-12T15:12:09.252Z,96453.13
2022-12-12T15:14:39.503Z,96452.03
2022-12-12T15:17:09.543Z,96450.72
2022-12-12T15:19:40.404Z,96453.53
2022-12-12T15:22:11.475Z,96450.34
2022-12-12T15:24:39.898Z,96451.84
2022-12-12T15:27:07.750Z,96453.00
2022-12-12T15:29:39.680Z,96453.69
2022-12-12T15:32:11.196Z,96457.75
2022-12-12T15:34:41.228Z,96458.06
2022-12-12T15:37:23.220Z,96456.13
2022-12-12T15:40:19.961Z,96449.63
2022-12-12T15:42:51.853Z,96454.03
2022-12-12T15:45:24.855Z,96455.41
2022-12-12T15:47:54.509Z,96452.19
2022-12-12T15:50:25.222Z,96445.00
2022-12-12T15:53:02.541Z,96448.63
2022-12-12T15:55:30.524Z,96455.78
2022-12-12T15:57:59.000Z,96461.66
2022-12-12T16:00:32.263Z,96458.25
2022-12-12T16:03:03.849Z,96455.06
2022-12-12T16:05:33.518Z,96463.75
2022-12-12T16:08:37.800Z,96463.03
2022-12-12T16:11:07.742Z,96458.28
2022-12-12T16:13:40.148Z,96467.03
2022-12-12T16:16:45.131Z,96469.38
2022-12-12T16:19:41.053Z,96473.03
2022-12-12T16:22:15.392Z,96474.75
2022-12-12T16:24:48.891Z,96478.47
2022-12-12T16:27:16.655Z,96481.97
2022-12-12T16:29:44.440Z,96486.34
2022-12-12T16:32:18.143Z,96484.31
2022-12-12T16:34:46.234Z,96485.38
2022-12-12T16:37:15.820Z,96490.63
2022-12-12T16:39:44.056Z,96491.22
2022-12-12T16:42:14.486Z,96488.56
2022-12-12T16:44:42.326Z,96489.28
2022-12-12T16:47:19.118Z,96498.97
2022-12-12T16:49:48.101Z,96499.88
2022-12-12T16:52:16.522Z,96491.19
2022-12-12T16:54:51.068Z,96498.91
2022-12-12T16:57:21.763Z,96499.47
2022-12-12T16:59:49.599Z,96495.69
2022-12-12T17:02:21.382Z,96495.97
2022-12-12T17:04:49.695Z,96493.72
2022-12-12T17:07:17.748Z,96496.91
2022-12-12T17:09:45.545Z,96493.06
2022-12-12T17:12:15.318Z,96498.69
2022-12-12T17:14:43.184Z,96504.22
2022-12-12T17:17:11.026Z,96503.13
2022-12-12T17:19:40.212Z,96499.19
2022-12-12T17:22:08.035Z,96495.97
2022-12-12T17:24:35.755Z,96503.16
2022-12-12T17:27:03.512Z,96502.97
2022-12-12T17:29:31.237Z,96493.78
2022-12-12T17:31:59.050Z,96500.03
2022-12-12T17:34:26.817Z,96506.09
2022-12-12T17:36:55.918Z,96502.00
2022-12-12T17:39:23.936Z,96503.19
2022-12-12T17:41:51.829Z,96514.59
2022-12-12T17:44:19.587Z,96512.47
2022-12-12T17:46:47.299Z,96515.03
2022-12-12T17:49:14.976Z,96518.66
2022-12-12T17:51:42.750Z,96518.09
2022-12-12T17:54:11.992Z,96528.56
2022-12-12T17:56:40.051Z,96537.38
2022-12-12T17:59:08.504Z,96540.50
2022-12-12T18:01:36.517Z,96539.22
2022-12-12T18:04:05.493Z,96546.88
2022-12-12T18:06:35.044Z,96545.28
2022-12-12T18:09:03.640Z,96533.63
2022-12-12T18:11:35.627Z,96534.25
2022-12-12T18:14:05.110Z,96532.59
2022-12-12T18:16:33.783Z,96530.94
2022-12-12T18:19:02.315Z,96540.13
2022-12-12T18:24:22.066Z,96547.13
2022-12-12T18:26:53.901Z,96549.22
2022-12-12T18:29:21.652Z,96543.56
2022-12-12T18:31:49.997Z,96536.88
2022-12-12T18:34:17.987Z,96539.88
2022-12-12T18:36:45.783Z,96527.94
2022-12-12T18:39:13.649Z,96533.34
2022-12-12T18:41:41.446Z,96529.75
2022-12-12T18:44:13.783Z,96530.84
2022-12-12T18:46:43.417Z,96533.44
2022-12-12T18:49:13.860Z,96536.75
2022-12-12T18:51:42.237Z,96537.41
2022-12-12T18:54:14.730Z,96537.84
2022-12-12T18:56:44.257Z,96537.09
2022-12-12T18:59:13.993Z,96541.94
2022-12-12T19:01:41.874Z,96538.25
2022-12-12T19:04:13.348Z,96543.50
2022-12-12T19:06:42.391Z,96533.81
2022-12-12T19:09:14.539Z,96543.84
2022-12-12T19:11:42.342Z,96546.75
2022-12-12T19:14:11.767Z,96555.47
2022-12-12T19:16:41.141Z,96547.94
2022-12-12T19:19:09.713Z,96544.94
2022-12-12T19:21:38.494Z,96549.94
2022-12-12T19:24:12.561Z,96540.28
2022-12-12T19:26:41.706Z,96554.06
2022-12-12T19:29:12.393Z,96551.31
2022-12-12T19:31:41.617Z,96547.19
2022-12-12T19:34:10.586Z,96547.94
2022-12-12T19:36:38.257Z,96555.50
2022-12-12T19:39:07.411Z,96561.72
2022-12-12T19:41:36.386Z,96552.66
2022-12-12T19:44:08.588Z,96553.16
2022-12-12T19:46:36.566Z,96558.66
2022-12-12T19:49:08.391Z,96560.31
2022-12-12T19:51:39.184Z,96559.50
2022-12-12T19:54:09.248Z,96563.88
2022-12-12T19:56:38.593Z,96564.94
2022-12-12T19:59:06.446Z,96569.34
2022-12-12T20:01:35.833Z,96566.63
2022-12-12T20:04:07.112Z,96568.00
2022-12-12T20:06:41.069Z,96569.03
2022-12-12T20:09:10.382Z,96576.91
2022-12-12T20:11:38.944Z,96572.00
2022-12-12T20:14:07.225Z,96571.09
2022-12-12T20:16:34.981Z,96569.25
2022-12-12T20:19:03.081Z,96569.19
2022-12-12T20:24:23.824Z,96570.41
2022-12-12T20:26:52.195Z,96567.69
2022-12-12T20:29:21.605Z,96562.47
2022-12-12T20:31:49.846Z,96562.47
2022-12-12T20:34:19.182Z,96563.03
2022-12-12T20:36:48.399Z,96554.41
2022-12-12T20:39:17.343Z,96559.72
2022-12-12T20:41:45.806Z,96562.53
2022-12-12T20:44:14.433Z,96565.38
2022-12-12T20:46:44.074Z,96565.06
2022-12-12T20:49:14.369Z,96572.41
2022-12-12T20:51:58.630Z,96567.09
2022-12-12T20:54:29.762Z,96569.94
2022-12-12T20:56:58.001Z,96573.63
2022-12-12T20:59:26.029Z,96573.63
2022-12-12T21:01:54.212Z,96567.00
2022-12-12T21:04:22.628Z,96563.09
2022-12-12T21:06:51.553Z,96563.16
2022-12-12T21:09:25.745Z,96563.91
2022-12-12T21:11:57.203Z,96555.63
2022-12-12T21:14:25.439Z,96565.84
2022-12-12T21:16:53.250Z,96561.91
2022-12-12T21:19:22.747Z,96569.09
2022-12-12T21:21:50.881Z,96566.59
2022-12-12T21:24:18.789Z,96559.31
2022-12-12T21:26:47.333Z,96560.16
2022-12-12T21:29:17.060Z,96561.66
2022-12-12T21:31:50.790Z,96558.69
2022-12-12T21:34:19.520Z,96558.50
2022-12-12T21:36:47.227Z,96561.47
2022-12-12T21:39:14.942Z,96564.28
2022-12-12T21:41:43.895Z,96570.97
2022-12-12T21:44:11.931Z,96568.41
2022-12-12T21:46:44.230Z,96572.63
2022-12-12T21:49:26.688Z,96569.00
2022-12-12T21:51:55.695Z,96573.56
2022-12-12T21:54:24.293Z,96566.16
2022-12-12T21:56:52.448Z,96557.66
2022-12-12T21:59:21.436Z,96568.19
2022-12-12T22:01:51.269Z,96570.88
2022-12-12T22:04:19.076Z,96571.19
2022-12-12T22:06:47.141Z,96574.34
2022-12-12T22:09:15.356Z,96571.78
2022-12-12T22:11:49.538Z,96565.66
2022-12-12T22:14:21.314Z,96565.13
2022-12-12T22:16:50.857Z,96569.19
2022-12-12T22:19:19.050Z,96568.44
2022-12-12T22:21:48.214Z,96567.69
2022-12-12T22:24:16.651Z,96571.91
2022-12-12T22:26:45.916Z,96574.78
2022-12-12T22:29:15.807Z,96575.63
2022-12-12T22:31:44.816Z,96564.31
2022-12-12T22:34:15.845Z,96574.47
2022-12-12T22:36:44.891Z,96563.31
2022-12-12T22:39:15.164Z,96560.69
2022-12-12T22:41:42.916Z,96557.28
2022-12-12T22:44:14.250Z,96552.59
2022-12-12T22:46:44.164Z,96555.84
2022-12-12T22:49:15.202Z,96555.25
2022-12-12T22:51:43.877Z,96552.31
2022-12-12T22:54:12.365Z,96547.25
2022-12-12T22:56:40.849Z,96547.66
2022-12-12T22:59:10.814Z,96548.53
2022-12-12T23:01:38.487Z,96548.41
2022-12-12T23:04:06.748Z,96545.06
2022-12-12T23:06:36.881Z,96544.16
2022-12-12T23:09:06.981Z,96539.03
2022-12-12T23:11:35.577Z,96535.84
2022-12-12T23:14:05.175Z,96533.59
2022-12-12T23:16:34.861Z,96528.56
2022-12-12T23:19:03.282Z,96525.22
2022-12-12T23:21:31.033Z,96524.84
2022-12-12T23:24:00.153Z,96521.47
2022-12-12T23:26:30.343Z,96524.31
2022-12-12T23:28:58.401Z,96526.56
2022-12-12T23:31:27.600Z,96524.63
2022-12-12T23:33:56.636Z,96524.22
2022-12-12T23:36:25.037Z,96530.56
2022-12-12T23:38:55.544Z,96527.19
2022-12-12T23:41:24.957Z,96527.25
2022-12-12T23:43:53.488Z,96526.41
2022-12-12T23:46:32.389Z,96527.19
2022-12-12T23:49:01.150Z,96518.50
2022-12-12T23:51:30.890Z,96518.72
2022-12-12T23:53:59.410Z,96514.72
2022-12-12T23:56:28.957Z,96523.63
2022-12-12T23:58:57.958Z,96525.50
